Time;durP1;ratioP1;P1;durP2;ratioP2;P2;SDS_P1;SDS_P2;PMS_P1;PMS_P2;Temp;Humidity;BMP_temperature;BMP_pressure;BME280_temperature;BME280_humidity;BME280_pressure;Samples;Min_cycle;Max_cycle;Signal;HPM_P1;HPM_P2
2022/04/10 00:02:19;;;;;;;5.85;2.50;;;;;;;6.77;54.00;99289.00;7712673;32;38624;-73
2022/04/10 00:06:35;;;;;;;4.62;2.45;;;;;;;6.64;54.00;99297.56;7712804;32;37069;-71
2022/04/10 00:10:51;;;;;;;3.42;2.60;;;;;;;6.76;51.94;99295.50;7712601;32;40043;-74
2022/04/10 00:15:08;;;;;;;4.85;2.60;;;;;;;6.77;51.37;99294.41;7712445;32;40029;-75
2022/04/10 00:19:24;;;;;;;4.20;2.80;;;;;;;6.64;51.91;99285.91;7712214;32;37808;-74
2022/04/10 00:23:40;;;;;;;2.70;2.50;;;;;;;6.52;52.13;99281.50;7712452;32;38006;-74
2022/04/10 00:27:56;;;;;;;5.10;2.95;;;;;;;6.55;52.44;99277.44;7712599;32;40078;-74
2022/04/10 00:32:12;;;;;;;3.55;2.75;;;;;;;7.12;50.66;99271.38;7712012;32;41155;-74
2022/04/10 00:36:28;;;;;;;3.42;2.80;;;;;;;6.70;52.06;99276.75;7725231;32;37434;-74
2022/04/10 00:40:45;;;;;;;3.25;2.83;;;;;;;6.47;52.83;99270.63;7739149;32;37576;-73
2022/04/10 00:45:01;;;;;;;4.22;3.00;;;;;;;6.37;53.47;99278.66;7739214;32;39002;-74
2022/04/10 00:49:19;;;;;;;3.55;2.70;;;;;;;6.32;53.70;99276.69;7739095;32;39979;-73
2022/04/10 00:53:35;;;;;;;4.70;3.10;;;;;;;6.31;52.91;99275.06;7738700;32;38683;-74
2022/04/10 00:57:51;;;;;;;3.33;2.70;;;;;;;6.38;53.20;99272.13;7739033;32;37773;-74
2022/04/10 01:02:07;;;;;;;3.67;2.70;;;;;;;6.12;54.29;99284.59;7737603;32;39503;-76
2022/04/10 01:06:27;;;;;;;3.85;2.67;;;;;;;5.89;54.68;99277.56;7739015;32;39678;-74
2022/04/10 01:10:43;;;;;;;4.95;3.17;;;;;;;5.78;54.61;99273.94;7738794;32;38446;-73
2022/04/10 01:15:01;;;;;;;2.75;2.55;;;;;;;5.87;54.48;99277.81;7738678;32;37068;-75
2022/04/10 01:19:17;;;;;;;6.68;3.53;;;;;;;5.45;56.00;99290.03;7738788;32;40403;-73
2022/04/10 01:23:34;;;;;;;3.83;3.22;;;;;;;5.80;54.99;99304.25;7737171;32;39968;-74
2022/04/10 01:27:50;;;;;;;3.40;3.10;;;;;;;5.52;55.41;99303.38;7738540;32;38055;-75
2022/04/10 01:32:06;;;;;;;5.70;3.50;;;;;;;5.32;56.19;99313.91;7738523;32;37873;-74
2022/04/10 01:36:25;;;;;;;5.43;3.75;;;;;;;5.64;55.18;99312.19;7738579;32;39941;-73
2022/04/10 01:40:41;;;;;;;6.68;3.90;;;;;;;5.26;55.96;99327.34;7737035;32;39863;-74
2022/04/10 01:44:58;;;;;;;4.90;3.75;;;;;;;5.01;57.67;99325.06;7738047;32;37756;-74
2022/04/10 01:49:14;;;;;;;7.85;4.20;;;;;;;5.13;57.21;99327.69;7738366;32;38125;-71
2022/04/10 01:53:30;;;;;;;5.50;4.10;;;;;;;5.13;57.41;99326.88;7738137;32;39116;-73
2022/04/10 01:57:46;;;;;;;5.78;3.60;;;;;;;5.34;56.74;99327.97;7738277;32;39694;-73
2022/04/10 02:02:03;;;;;;;4.50;3.55;;;;;;;5.09;57.45;99329.25;7738089;32;38314;-73
2022/04/10 02:06:19;;;;;;;6.05;3.45;;;;;;;5.14;57.77;99340.13;7736989;32;37822;-73
2022/04/10 02:10:35;;;;;;;4.85;3.58;;;;;;;4.88;59.27;99344.31;7738042;32;40199;-73
2022/04/10 02:14:51;;;;;;;4.35;3.67;;;;;;;4.82;59.61;99343.41;7728331;32;41175;-73
2022/04/10 02:19:08;;;;;;;5.72;3.78;;;;;;;4.69;59.05;99359.91;7711107;32;38578;-74
2022/04/10 02:23:25;;;;;;;4.93;3.50;;;;;;;4.87;57.52;99362.41;7711901;32;37847;-74
2022/04/10 02:27:41;;;;;;;6.65;3.70;;;;;;;4.86;57.33;99379.69;7737770;32;39345;-72
2022/04/10 02:31:57;;;;;;;5.10;3.75;;;;;;;4.62;58.12;99375.47;7737754;32;40142;-73
2022/04/10 02:36:16;;;;;;;4.57;3.67;;;;;;;4.87;57.01;99389.41;7737688;32;37921;-73
2022/04/10 02:40:32;;;;;;;5.53;4.10;;;;;;;4.34;59.90;99377.09;7737764;32;36022;-72
2022/04/10 02:44:48;;;;;;;5.53;3.85;;;;;;;4.55;58.82;99385.59;7737657;32;39943;-73
2022/04/10 02:49:04;;;;;;;4.10;3.42;;;;;;;4.80;58.74;99375.25;7737432;32;40734;-73
2022/04/10 02:53:23;;;;;;;5.68;4.05;;;;;;;5.20;56.47;99379.69;7735936;32;38943;-72
2022/04/10 02:57:39;;;;;;;4.40;3.83;;;;;;;4.88;58.72;99398.31;7709752;32;38242;-73
2022/04/10 03:01:55;;;;;;;6.00;3.62;;;;;;;4.89;58.18;99405.38;7710513;32;39326;-72
2022/04/10 03:06:11;;;;;;;5.70;4.28;;;;;;;4.96;57.62;99410.62;7710464;32;39919;-74
2022/04/10 03:10:27;;;;;;;4.43;3.62;;;;;;;5.12;57.65;99401.69;7728197;32;38510;-72
2022/04/10 03:14:43;;;;;;;6.15;4.00;;;;;;;5.12;57.42;99417.09;7736839;32;37325;-73
2022/04/10 03:18:59;;;;;;;5.75;3.90;;;;;;;4.84;58.32;99422.31;7736855;32;40189;-75
2022/04/10 03:23:16;;;;;;;5.30;3.87;;;;;;;4.86;58.44;99422.06;7735542;32;39929;-75
2022/04/10 03:27:32;;;;;;;7.55;4.07;;;;;;;5.09;57.70;99437.34;7710569;32;37692;-73
2022/04/10 03:31:48;;;;;;;6.57;4.30;;;;;;;4.49;60.02;99444.87;7709759;32;37754;-73
2022/04/10 03:36:05;;;;;;;5.45;3.97;;;;;;;4.67;59.79;99446.59;7709689;32;40491;-73
2022/04/10 03:40:21;;;;;;;8.80;4.68;;;;;;;4.78;59.07;99455.69;7709553;32;39807;-73
2022/04/10 03:44:37;;;;;;;6.30;4.18;;;;;;;4.74;59.29;99454.53;7709286;32;37871;-73
2022/04/10 03:48:53;;;;;;;7.43;4.55;;;;;;;4.74;59.79;99459.94;7709340;32;37771;-73
2022/04/10 03:53:09;;;;;;;7.60;4.78;;;;;;;4.66;60.29;99474.66;7709119;32;40118;-72
2022/04/10 03:57:26;;;;;;;6.43;4.53;;;;;;;4.72;59.85;99480.97;7709146;32;40801;-74
2022/04/10 04:01:41;;;;;;;5.72;4.40;;;;;;;4.97;58.83;99491.44;7708948;32;37894;-73
2022/04/10 04:05:58;;;;;;;6.57;4.25;;;;;;;4.53;59.53;99490.31;7729691;32;37939;-74
2022/04/10 04:10:14;;;;;;;5.40;4.12;;;;;;;4.66;59.62;99490.84;7739080;32;39457;-74
2022/04/10 04:14:30;;;;;;;8.35;5.35;;;;;;;4.72;59.14;99494.47;7739345;32;40050;-73
2022/04/10 04:18:46;;;;;;;8.77;5.20;;;;;;;4.70;59.10;99491.19;7738211;32;38510;-73
2022/04/10 04:23:02;;;;;;;7.70;4.70;;;;;;;4.79;59.22;99497.84;7738724;32;37002;-73
2022/04/10 04:27:18;;;;;;;7.25;4.30;;;;;;;4.48;60.41;99499.97;7738913;32;40205;-72
2022/04/10 04:31:34;;;;;;;5.62;4.32;;;;;;;4.73;59.35;99493.41;7739258;32;39905;-73
2022/04/10 04:35:50;;;;;;;5.50;4.20;;;;;;;4.58;60.58;99498.50;7739084;32;37845;-73
2022/04/10 04:40:10;;;;;;;8.27;4.68;;;;;;;4.77;59.58;99502.66;7739151;32;37242;-73
2022/04/10 04:44:26;;;;;;;7.87;5.00;;;;;;;5.00;59.08;99503.63;7727772;32;40401;-73
2022/04/10 04:48:42;;;;;;;7.12;4.32;;;;;;;4.93;59.14;99505.66;7712291;32;39645;-73
2022/04/10 04:52:59;;;;;;;7.90;4.50;;;;;;;5.26;58.38;99503.03;7712215;32;37694;-74
2022/04/10 04:57:15;;;;;;;7.40;4.62;;;;;;;5.11;58.97;99508.16;7712228;32;37043;-75
2022/04/10 05:01:31;;;;;;;7.87;4.60;;;;;;;5.27;58.33;99518.16;7712035;32;39946;-73
2022/04/10 05:05:47;;;;;;;8.55;5.12;;;;;;;5.13;57.47;99516.84;7711997;32;40900;-74
2022/04/10 05:10:04;;;;;;;6.03;4.70;;;;;;;5.50;57.53;99532.62;7711956;32;37864;-74
2022/04/10 05:14:20;;;;;;;7.85;5.07;;;;;;;4.89;58.94;99530.44;7711852;32;37227;-73
2022/04/10 05:18:36;;;;;;;9.02;5.40;;;;;;;5.53;57.77;99534.84;7711368;32;40084;-73
2022/04/10 05:22:52;;;;;;;7.45;4.55;;;;;;;5.22;58.66;99536.19;7711733;32;40852;-72
2022/04/10 05:27:10;;;;;;;8.88;5.00;;;;;;;5.83;56.41;99536.41;7685153;32;37917;-72
2022/04/10 05:31:26;;;;;;;8.48;5.18;;;;;;;5.32;58.03;99540.97;7685245;32;37883;-73
2022/04/10 05:35:42;;;;;;;11.00;5.30;;;;;;;5.55;58.07;99546.22;7685167;32;39414;-73
2022/04/10 05:39:58;;;;;;;8.27;5.22;;;;;;;5.44;58.71;99555.22;7705595;32;40008;-74
2022/04/10 05:44:14;;;;;;;8.50;5.47;;;;;;;5.63;58.45;99558.53;7711517;32;38560;-73
2022/04/10 05:48:31;;;;;;;11.35;6.00;;;;;;;5.61;58.21;99569.59;7711576;32;38035;-74
2022/04/10 05:52:48;;;;;;;6.82;4.87;;;;;;;5.77;58.02;99569.84;7711489;32;40044;-73
2022/04/10 05:57:05;;;;;;;8.68;5.10;;;;;;;6.24;57.12;99583.06;7684966;32;39962;-73
2022/04/10 06:01:22;;;;;;;7.93;5.30;;;;;;;6.39;55.98;99572.44;7684728;32;37725;-72
2022/04/10 06:05:38;;;;;;;9.27;5.70;;;;;;;6.06;56.89;99578.72;7684725;32;37293;-73
2022/04/10 06:09:54;;;;;;;7.35;5.10;;;;;;;5.94;56.48;99578.78;7684808;32;39402;-73
2022/04/10 06:14:10;;;;;;;7.55;5.20;;;;;;;6.28;55.89;99577.97;7684537;32;39890;-73
2022/04/10 06:18:26;;;;;;;8.10;5.75;;;;;;;6.52;55.58;99574.00;7684506;32;39045;-72
2022/04/10 06:22:42;;;;;;;7.30;5.07;;;;;;;6.44;55.59;99576.31;7684770;32;37041;-69
2022/04/10 06:26:58;;;;;;;9.07;5.53;;;;;;;6.96;58.21;99571.25;7684616;32;39363;-73
2022/04/10 06:31:14;;;;;;;7.07;5.15;;;;;;;6.97;54.88;99572.09;7683278;32;40025;-73
2022/04/10 06:35:30;;;;;;;8.20;5.22;;;;;;;7.31;54.72;99580.88;7684475;32;38697;-75
2022/04/10 06:39:46;;;;;;;7.68;4.87;;;;;;;7.45;53.63;99578.59;7727033;32;37063;-74
2022/04/10 06:44:03;;;;;;;6.50;4.57;;;;;;;7.61;53.07;99592.31;7737530;32;39386;-74
2022/04/10 06:48:19;;;;;;;8.23;5.12;;;;;;;7.62;52.74;99586.62;7737616;32;39751;-75
2022/04/10 06:52:35;;;;;;;7.75;5.15;;;;;;;7.69;52.62;99591.81;7737388;32;38485;-77
2022/04/10 06:56:51;;;;;;;8.93;5.15;;;;;;;7.76;52.93;99603.28;7696399;32;37053;-74
2022/04/10 07:01:07;;;;;;;8.80;5.43;;;;;;;8.35;51.52;99607.00;7710525;32;40039;-73
2022/04/10 07:05:24;;;;;;;8.20;5.20;;;;;;;8.01;51.89;99615.44;7710365;32;40031;-75
2022/04/10 07:09:40;;;;;;;8.23;5.22;;;;;;;8.32;51.39;99612.97;7710308;32;38044;-75
2022/04/10 07:13:56;;;;;;;7.68;5.28;;;;;;;8.41;51.19;99612.19;7710105;32;37242;-74
2022/04/10 07:18:12;;;;;;;8.05;5.32;;;;;;;8.41;50.87;99612.19;7710170;32;40246;-76
2022/04/10 07:27:03;;;;;;;9.85;4.72;;;;;;;8.62;51.48;99620.50;7683102;32;38380;-74
2022/04/10 07:31:19;;;;;;;7.82;5.53;;;;;;;8.53;51.22;99619.37;7683119;32;37057;-75
2022/04/10 07:35:35;;;;;;;8.63;5.35;;;;;;;8.78;51.08;99621.44;7682878;32;40009;-74
2022/04/10 07:39:51;;;;;;;10.15;4.82;;;;;;;8.93;50.80;99612.50;7732472;32;39861;-75
2022/04/10 07:44:18;;;;;;;5.10;4.20;;;;;;;8.80;49.29;99614.63;7738142;32;37782;-74
2022/04/10 07:48:46;;;;;;;6.50;4.78;;;;;;;8.91;48.61;99604.63;7715538;32;37057;-74
2022/04/10 07:53:02;;;;;;;7.93;4.70;;;;;;;9.38;47.79;99613.75;7715967;32;40322;-75
2022/04/10 07:57:18;;;;;;;8.43;4.50;;;;;;;9.69;48.25;99614.66;7721040;32;39949;-75
2022/04/10 08:01:34;;;;;;;6.55;3.85;;;;;;;9.98;46.96;99616.03;7712736;32;37795;-74
2022/04/10 08:05:50;;;;;;;4.95;3.75;;;;;;;9.94;45.37;99618.47;7712749;32;37080;-75
2022/04/10 08:10:07;;;;;;;4.82;3.55;;;;;;;9.98;46.55;99624.19;7722029;32;132660;-74
2022/04/10 08:14:23;;;;;;;4.35;3.50;;;;;;;10.12;44.36;99634.28;7712615;32;39748;-74
2022/04/10 08:18:39;;;;;;;6.18;3.17;;;;;;;10.07;44.89;99642.47;7712451;32;38153;-75
2022/04/10 08:22:59;;;;;;;5.80;3.33;;;;;;;10.27;43.75;99649.00;7712289;32;36038;-75
2022/04/10 08:27:15;;;;;;;5.50;3.37;;;;;;;10.70;42.81;99644.88;7717539;32;39136;-74
2022/04/10 08:31:31;;;;;;;4.90;3.20;;;;;;;11.12;39.61;99650.19;7739224;32;40572;-75
2022/04/10 08:35:47;;;;;;;5.12;2.92;;;;;;;11.06;38.83;99655.69;7739246;32;38524;-75
2022/04/10 08:40:04;;;;;;;6.78;3.40;;;;;;;11.08;40.91;99661.66;7738955;32;37707;-74
2022/04/10 08:44:22;;;;;;;6.80;3.15;;;;;;;11.42;39.41;99655.53;7739132;32;39376;-75
2022/04/10 08:48:38;;;;;;;5.07;3.08;;;;;;;11.21;39.36;99665.72;7737818;32;41442;-76
2022/04/10 08:52:59;;;;;;;7.05;3.08;;;;;;;11.71;39.42;99656.72;7734066;32;37814;-76
2022/04/10 08:57:15;;;;;;;4.37;2.58;;;;;;;12.32;39.30;99661.78;7711613;32;37262;-71
2022/04/10 09:01:31;;;;;;;5.05;2.72;;;;;;;12.37;37.17;99659.00;7712275;32;39431;-75
2022/04/10 09:06:02;;;;;;;3.78;2.65;;;;;;;12.55;37.94;99656.66;7711505;32;40943;-74
2022/04/10 09:10:18;;;;;;;7.80;3.05;;;;;;;12.38;36.36;99662.53;7738115;32;37819;-75
2022/04/10 09:14:40;;;;;;;4.00;2.70;;;;;;;12.51;37.51;99658.34;7738698;32;37023;-75
2022/04/10 09:19:06;;;;;;;5.45;3.05;;;;;;;12.44;36.97;99655.12;7738852;32;39319;-76
2022/04/10 09:23:23;;;;;;;4.50;2.92;;;;;;;12.75;37.17;99661.94;7738369;32;40077;-75
2022/04/10 09:27:43;;;;;;;5.20;2.85;;;;;;;12.35;35.89;99663.16;7738598;32;38523;-76
2022/04/10 09:31:59;;;;;;;5.70;2.87;;;;;;;12.85;36.67;99662.91;7739065;32;37915;-75
2022/04/10 09:36:34;;;;;;;2.30;2.10;;;;;;;13.34;36.08;99664.56;7738603;32;38827;-75
2022/04/10 09:40:50;;;;;;;6.43;2.72;;;;;;;13.32;36.72;99678.56;7738521;32;39932;-75
2022/04/10 09:45:25;;;;;;;9.80;2.67;;;;;;;13.81;36.19;99675.72;7738455;32;37897;-75
2022/04/10 09:49:41;;;;;;;5.78;2.75;;;;;;;14.40;35.74;99659.72;7737569;32;37741;-75
2022/04/10 09:54:03;;;;;;;4.72;2.10;;;;;;;14.18;33.82;99671.34;7738096;32;39315;-74
2022/04/10 09:58:20;;;;;;;3.10;2.20;;;;;;;14.09;33.22;99669.28;7738156;32;40691;-76
2022/04/10 10:02:37;;;;;;;3.30;2.37;;;;;;;13.86;33.52;99670.16;7738092;32;37965;-76
2022/04/10 10:06:53;;;;;;;4.18;2.50;;;;;;;13.58;34.77;99671.94;7725207;32;37039;-75
2022/04/10 10:11:10;;;;;;;4.15;2.30;;;;;;;13.87;33.68;99666.31;7710370;32;39343;-77
2022/04/10 10:15:27;;;;;;;10.27;2.60;;;;;;;13.14;35.20;99676.53;7711044;32;40843;-77
2022/04/10 10:19:43;;;;;;;3.47;2.17;;;;;;;13.75;33.81;99666.78;7711054;32;38284;-75
2022/04/10 10:24:00;;;;;;;2.72;1.98;;;;;;;14.49;33.76;99665.31;7711101;32;37997;-75
2022/04/10 10:28:41;;;;;;;6.47;2.47;;;;;;;14.01;30.95;99660.91;7711131;32;39599;-75
2022/04/10 10:33:19;;;;;;;5.62;2.40;;;;;;;14.47;32.80;99668.41;7710152;32;40136;-75
2022/04/10 10:37:48;;;;;;;;;;;;;;;14.96;30.45;99677.94;7711384;32;36792;-76
2022/04/10 10:42:11;;;;;;;3.45;2.10;;;;;;;15.01;31.41;99677.03;7711299;32;37637;-76
2022/04/10 10:46:28;;;;;;;3.55;2.50;;;;;;;14.68;30.28;99670.78;7712500;32;39183;-76
2022/04/10 10:50:45;;;;;;;3.90;2.10;;;;;;;15.06;31.18;99670.66;7737656;32;39834;-76
2022/04/10 10:55:13;;;;;;;4.62;2.30;;;;;;;14.38;31.31;99673.72;7719249;32;37900;-75
2022/04/10 10:59:36;;;;;;;3.33;2.20;;;;;;;14.17;31.50;99672.44;7710671;32;36908;-76
2022/04/10 11:04:08;;;;;;;4.03;1.92;;;;;;;14.89;32.31;99680.28;7710358;32;39009;-76
2022/04/10 11:08:40;;;;;;;1.98;1.80;;;;;;;15.62;29.69;99657.66;7710422;32;39929;-76
2022/04/10 11:13:05;;;;;;;2.62;1.77;;;;;;;14.98;30.81;99664.72;7709255;32;37781;-77
2022/04/10 11:17:29;;;;;;;5.18;1.85;;;;;;;14.61;27.88;99658.28;7709468;32;36931;-76
2022/04/10 11:21:45;;;;;;;2.83;1.90;;;;;;;14.97;29.24;99657.63;7710280;32;39441;-76
2022/04/10 11:26:07;;;;;;;2.85;2.00;;;;;;;14.67;29.25;99669.16;7734560;32;39947;-77
2022/04/10 11:30:38;;;;;;;5.82;1.80;;;;;;;14.24;30.03;99672.87;7736708;32;38699;-77
2022/04/10 11:35:00;;;;;;;2.53;1.60;;;;;;;14.55;29.44;99670.41;7736735;32;37025;-76
2022/04/10 11:39:17;;;;;;;2.47;1.77;;;;;;;14.57;28.67;99670.12;7736377;32;39332;-76
2022/04/10 11:43:33;;;;;;;2.28;1.60;;;;;;;14.37;30.04;99669.38;7734957;32;40669;-77
2022/04/10 11:47:50;;;;;;;2.80;1.60;;;;;;;13.64;29.36;99678.97;7734726;32;38737;-78
2022/04/10 11:52:07;;;;;;;3.15;1.70;;;;;;;14.64;29.43;99668.66;7735584;32;37474;-77
2022/04/10 11:56:23;;;;;;;2.10;1.23;;;;;;;15.24;26.71;99674.41;7736154;32;39392;-75
2022/04/10 12:01:04;;;;;;;2.22;1.27;;;;;;;15.74;24.55;99657.94;7734945;32;39868;-74
2022/04/10 12:05:30;;;;;;;4.32;1.10;;;;;;;15.47;27.22;99656.06;7735903;32;38744;-77
2022/04/10 12:09:48;;;;;;;1.00;1.00;;;;;;;16.25;25.23;99653.22;7735749;32;36948;-77
2022/04/10 12:14:24;;;;;;;2.17;1.40;;;;;;;16.63;23.88;99652.81;7735415;32;39498;-77
2022/04/10 12:19:06;;;;;;;3.55;1.45;;;;;;;16.98;23.20;99655.75;7711754;32;40012;-78
2022/04/10 12:23:26;;;;;;;3.05;1.25;;;;;;;17.33;24.88;99658.59;7706408;32;37845;-78
2022/04/10 12:27:44;;;;;;;1.60;1.50;;;;;;;17.47;22.94;99653.75;7708922;32;37714;-78
2022/04/10 12:32:00;;;;;;;4.40;1.60;;;;;;;17.78;23.54;99650.91;7710417;32;39395;-79
2022/04/10 12:36:17;;;;;;;3.25;1.60;;;;;;;17.70;24.13;99645.38;7712464;32;39843;-77
2022/04/10 12:40:37;;;;;;;1.95;1.10;;;;;;;18.25;23.72;99644.75;7712474;32;38692;-78
2022/04/10 12:45:03;;;;;;;2.30;1.30;;;;;;;17.85;22.35;99650.44;7712284;32;36773;-77
2022/04/10 12:49:19;;;;;;;3.75;1.10;;;;;;;17.94;23.92;99651.25;7734419;32;39114;-77
2022/04/10 12:53:35;;;;;;;1.30;1.20;;;;;;;17.90;22.57;99647.53;7728905;32;39973;-78
2022/04/10 12:57:52;;;;;;;2.62;1.30;;;;;;;17.63;21.19;99646.66;7712205;32;37971;-76
2022/04/10 13:02:10;;;;;;;1.30;1.20;;;;;;;16.65;23.28;99640.34;7713994;32;35892;-78
2022/04/10 13:07:14;;;;;;;2.55;1.70;;;;;;;16.47;22.00;99639.44;7712359;32;39961;-77
2022/04/10 13:11:34;;;;;;;3.70;1.60;;;;;;;16.50;23.34;99637.97;7657555;32;39886;-78
2022/04/10 13:15:51;;;;;;;2.85;1.50;;;;;;;15.96;25.86;99657.19;7679099;32;38529;-77
2022/04/10 13:20:09;;;;;;;1.45;1.35;;;;;;;16.46;24.19;99623.25;7710695;32;37141;-78
2022/04/10 13:24:25;;;;;;;8.60;4.25;;;;;;;16.18;23.59;99630.81;7712339;32;38687;-76
2022/04/10 13:28:41;;;;;;;4.10;2.08;;;;;;;16.13;23.63;99631.78;7711885;32;40008;-78
2022/04/10 13:33:01;;;;;;;2.08;1.30;;;;;;;16.81;23.70;99634.41;7711506;32;37723;-78
2022/04/10 13:37:18;;;;;;;3.92;1.87;;;;;;;16.47;22.87;99646.84;7710354;32;37708;-80
2022/04/10 13:41:34;;;;;;;1.60;1.50;;;;;;;16.56;24.54;99642.25;7707639;32;39485;-78
2022/04/10 13:45:50;;;;;;;2.35;1.60;;;;;;;16.69;24.98;99657.84;7711123;32;40029;-78
2022/04/10 13:50:08;;;;;;;6.07;3.08;;;;;;;16.03;24.01;99662.28;7711221;32;37870;-77
2022/04/10 13:54:24;;;;;;;4.97;3.03;;;;;;;15.24;25.88;99664.22;7724239;32;37195;-80
2022/04/10 13:58:40;;;;;;;2.15;1.70;;;;;;;14.22;26.34;99678.66;7738167;32;39529;-78
2022/04/10 14:02:56;;;;;;;2.50;1.90;;;;;;;15.56;26.22;99676.22;7734525;32;40359;-79
2022/04/10 14:07:12;;;;;;;2.78;1.70;;;;;;;16.45;24.31;99666.47;7711021;32;38641;-79
2022/04/10 14:11:29;;;;;;;3.17;1.52;;;;;;;16.96;22.73;99672.56;7710003;32;37501;-80
2022/04/10 14:15:45;;;;;;;3.47;1.77;;;;;;;17.49;22.89;99683.75;7710508;32;39393;-79
2022/04/10 14:20:01;;;;;;;2.33;1.83;;;;;;;17.71;21.87;99677.31;7711770;32;40879;-78
2022/04/10 14:24:17;;;;;;;2.80;1.67;;;;;;;17.92;20.89;99672.84;7711469;32;37861;-79
2022/04/10 14:28:35;;;;;;;3.35;1.75;;;;;;;17.36;21.23;99689.09;7737815;32;37031;-78
2022/04/10 14:32:53;;;;;;;2.08;1.70;;;;;;;17.15;23.04;99685.28;7737677;32;39969;-79
2022/04/10 14:37:09;;;;;;;1.92;1.80;;;;;;;17.00;23.40;99689.28;7737685;32;40055;-80
2022/04/10 14:41:25;;;;;;;2.90;1.92;;;;;;;16.62;24.90;99700.69;7737364;32;37835;-79
2022/04/10 14:45:41;;;;;;;2.20;1.80;;;;;;;16.15;24.99;99701.03;7726725;32;37028;-79
2022/04/10 14:49:58;;;;;;;2.92;1.90;;;;;;;15.45;25.69;99705.81;7710660;32;39130;-80
2022/04/10 14:54:15;;;;;;;3.55;1.73;;;;;;;15.72;24.69;99699.47;7709318;32;39960;-77
2022/04/10 14:58:32;;;;;;;2.03;1.60;;;;;;;15.35;24.46;99706.84;7710855;32;38451;-79
2022/04/10 15:02:49;;;;;;;4.37;1.50;;;;;;;15.50;23.82;99705.69;7709216;32;37697;-79
2022/04/10 15:07:05;;;;;;;4.57;1.73;;;;;;;15.87;24.44;99708.56;7710127;32;39151;-78
2022/04/10 15:11:21;;;;;;;1.87;1.67;;;;;;;15.40;25.06;99708.66;7731242;32;39999;-79
2022/04/10 15:15:39;;;;;;;9.48;3.70;;;;;;;16.14;25.25;99708.47;7736645;32;37619;-79
2022/04/10 15:20:01;;;;;;;2.78;1.75;;;;;;;15.75;25.10;99717.31;7710329;32;37412;-79
2022/04/10 15:24:18;;;;;;;3.28;1.65;;;;;;;15.44;24.11;99723.44;7709930;32;39164;-78
2022/04/10 15:28:35;;;;;;;8.30;4.95;;;;;;;15.60;23.27;99723.91;7709844;32;40324;-78
2022/04/10 15:32:53;;;;;;;3.53;2.80;;;;;;;15.45;23.99;99724.22;7709788;32;38451;-78
2022/04/10 15:37:09;;;;;;;23.15;3.37;;;;;;;14.70;25.11;99731.69;7709794;32;37650;-78
2022/04/10 15:41:25;;;;;;;4.62;2.90;;;;;;;14.15;27.22;99732.25;7709475;32;40069;-79
2022/04/10 15:45:41;;;;;;;5.10;2.40;;;;;;;14.47;26.90;99734.22;7709507;32;39814;-77
2022/04/10 15:49:58;;;;;;;5.97;1.62;;;;;;;14.20;27.03;99740.41;7712355;32;37899;-78
2022/04/10 15:54:14;;;;;;;3.45;1.70;;;;;;;13.86;27.21;99736.75;7734837;32;37108;-80
2022/04/10 15:58:30;;;;;;;2.05;1.60;;;;;;;14.34;25.72;99734.97;7736183;32;39387;-80
2022/04/10 16:02:46;;;;;;;2.97;2.03;;;;;;;14.73;25.34;99734.63;7735938;32;40019;-80
2022/04/10 16:07:03;;;;;;;3.75;1.83;;;;;;;14.79;25.47;99743.59;7739339;32;38549;-75
2022/04/10 16:11:19;;;;;;;3.33;1.77;;;;;;;14.52;28.41;99739.63;7739778;32;37031;-79
2022/04/10 16:15:35;;;;;;;3.65;1.90;;;;;;;13.91;25.16;99744.09;7732632;32;39376;-77
2022/04/10 16:19:51;;;;;;;6.00;1.50;;;;;;;14.24;25.26;99742.22;7712592;32;40056;-77
2022/04/10 16:24:07;;;;;;;2.22;1.80;;;;;;;13.97;26.21;99740.19;7712573;32;37856;-77
2022/04/10 16:33:01;;;;;;;5.18;1.73;;;;;;;13.76;26.06;99758.78;7712499;32;39632;-79
2022/04/10 16:37:17;;;;;;;2.97;1.75;;;;;;;13.61;26.29;99759.81;7712496;32;39735;-79
2022/04/10 16:41:33;;;;;;;2.42;1.87;;;;;;;12.89;26.82;99760.56;7691531;32;37695;-77
2022/04/10 16:45:49;;;;;;;4.53;2.20;;;;;;;12.49;28.92;99775.41;7685482;32;36818;-78
2022/04/10 16:50:08;;;;;;;3.62;1.80;;;;;;;12.70;27.64;99774.13;7685376;32;39526;-79
2022/04/10 16:58:59;;;;;;;14.77;8.63;;;;;;;12.85;29.16;99777.81;7685283;32;38491;-77
2022/04/10 17:03:15;;;;;;;6.50;2.50;;;;;;;12.38;30.47;99780.09;7685376;32;37498;-76
2022/04/10 17:07:31;;;;;;;5.93;2.20;;;;;;;12.67;30.43;99790.28;7685265;32;39275;-76
2022/04/10 17:11:47;;;;;;;3.05;1.77;;;;;;;12.54;28.89;99778.09;7708947;32;39996;-76
2022/04/10 17:16:03;;;;;;;3.47;1.80;;;;;;;12.37;29.90;99789.41;7709990;32;37827;-76
2022/04/10 17:20:20;;;;;;;2.97;1.70;;;;;;;12.17;29.58;99799.34;7712034;32;37169;-80
2022/04/10 17:24:43;;;;;;;3.33;2.05;;;;;;;11.93;28.70;99804.69;7711605;32;38360;-79
2022/04/10 17:29:00;;;;;;;2.80;1.90;;;;;;;11.49;30.93;99808.09;7711653;32;39849;-78
2022/04/10 17:33:16;;;;;;;2.70;1.67;;;;;;;11.57;30.19;99817.63;7723518;32;37849;-79
2022/04/10 17:37:32;;;;;;;5.57;1.98;;;;;;;11.58;29.90;99831.00;7734856;32;38057;-80
2022/04/10 17:41:49;;;;;;;2.40;1.60;;;;;;;11.19;31.24;99839.81;7715883;32;39330;-80
2022/04/10 17:46:05;;;;;;;4.10;1.90;;;;;;;10.73;32.46;99850.75;7737911;32;39402;-80
2022/04/10 17:50:25;;;;;;;2.03;1.80;;;;;;;10.76;32.33;99849.34;7734247;32;36562;-79
2022/04/10 17:54:41;;;;;;;4.97;2.12;;;;;;;10.50;34.28;99863.78;7711378;32;37752;-80
2022/04/10 17:58:57;;;;;;;4.05;2.33;;;;;;;10.31;33.83;99866.19;7711559;32;39225;-79
2022/04/10 18:03:13;;;;;;;6.03;2.60;;;;;;;10.13;34.53;99864.72;7711530;32;39886;-78
2022/04/10 18:07:30;;;;;;;10.13;5.65;;;;;;;9.60;35.97;99880.25;7711422;32;37821;-79
2022/04/10 18:11:46;;;;;;;9.00;3.87;;;;;;;9.73;36.59;99887.16;7711284;32;37848;-80
2022/04/10 18:16:02;;;;;;;5.55;2.70;;;;;;;9.66;35.73;99887.41;7710910;32;39396;-80
2022/04/10 18:20:18;;;;;;;4.12;2.50;;;;;;;9.40;36.08;99897.31;7710792;32;39980;-78
2022/04/10 18:24:34;;;;;;;4.72;2.50;;;;;;;9.31;36.23;99901.56;7710517;32;37794;-79
2022/04/10 18:28:50;;;;;;;6.00;2.83;;;;;;;9.21;36.97;99918.66;7710923;32;37015;-79
2022/04/10 18:33:09;;;;;;;6.07;3.00;;;;;;;8.83;37.56;99917.78;7711063;32;40060;-79
2022/04/10 18:37:25;;;;;;;6.25;2.95;;;;;;;8.57;38.51;99925.66;7698953;32;40088;-78
2022/04/10 18:41:43;;;;;;;4.70;2.90;;;;;;;8.51;38.55;99932.09;7697024;32;37936;-78
2022/04/10 18:46:00;;;;;;;4.82;2.75;;;;;;;8.65;37.28;99936.06;7696456;32;37195;-79
2022/04/10 18:50:17;;;;;;;4.00;2.60;;;;;;;8.76;36.76;99938.88;7696257;32;39572;-79
2022/04/10 18:54:33;;;;;;;5.62;3.15;;;;;;;8.56;37.72;99942.22;7702072;32;39910;-78
2022/04/10 18:58:49;;;;;;;4.35;2.95;;;;;;;8.64;37.14;99948.00;7725590;32;38017;-79
2022/04/10 19:03:05;;;;;;;5.32;2.87;;;;;;;8.63;37.63;99949.06;7699229;32;37294;-77
2022/04/10 19:07:22;;;;;;;5.87;2.90;;;;;;;8.58;37.96;99957.16;7705186;32;39394;-79
2022/04/10 19:11:39;;;;;;;8.45;2.95;;;;;;;8.48;39.17;99965.22;7698026;32;39895;-77
2022/04/10 19:15:55;;;;;;;4.47;2.97;;;;;;;8.79;38.56;99965.56;7701064;32;37753;-76
2022/04/10 19:20:11;;;;;;;6.18;2.40;;;;;;;8.40;40.49;99968.31;7705564;32;37857;-76
2022/04/10 19:24:28;;;;;;;5.12;3.00;;;;;;;8.53;40.30;99973.41;7697007;32;39571;-77
2022/04/10 19:28:44;;;;;;;4.65;2.80;;;;;;;8.20;39.95;99991.44;7695397;32;40188;-78
2022/04/10 19:33:00;;;;;;;5.70;2.85;;;;;;;8.46;39.61;99989.91;7694867;32;37792;-79
2022/04/10 19:37:18;;;;;;;9.73;4.43;;;;;;;8.32;40.88;99990.53;7694748;32;36937;-76
2022/04/10 19:41:34;;;;;;;6.43;3.15;;;;;;;8.04;40.74;99989.62;7698258;32;41080;-78
2022/04/10 19:45:51;;;;;;;5.43;3.40;;;;;;;8.28;40.83;99993.75;7695898;32;40929;-79
2022/04/10 19:50:07;;;;;;;6.60;3.20;;;;;;;8.17;41.30;99991.94;7696732;32;37805;-78
2022/04/10 19:54:23;;;;;;;6.28;3.40;;;;;;;8.10;41.42;99999.47;7696625;32;37113;-78
2022/04/10 19:58:40;;;;;;;7.85;3.08;;;;;;;7.93;40.98;99995.97;7697582;32;40040;-78
2022/04/10 20:02:58;;;;;;;9.15;3.92;;;;;;;7.91;40.79;99998.91;7698306;32;41613;-79
2022/04/10 20:07:14;;;;;;;9.80;3.60;;;;;;;7.79;42.13;100011.75;7697760;32;39663;-78
2022/04/10 20:11:30;;;;;;;6.18;3.53;;;;;;;7.43;43.79;100012.00;7699669;32;37132;-79
2022/04/10 20:15:50;;;;;;;12.68;3.87;;;;;;;7.54;43.78;100021.16;7712433;32;40141;-78
2022/04/10 20:20:06;;;;;;;6.10;3.53;;;;;;;7.57;43.89;100022.53;7713323;32;41074;-77
2022/04/10 20:24:22;;;;;;;5.70;3.58;;;;;;;7.45;44.17;100020.72;7727724;32;38616;-78
2022/04/10 20:28:39;;;;;;;6.50;4.12;;;;;;;7.59;43.99;100020.37;7699881;32;37592;-78
2022/04/10 20:32:55;;;;;;;8.25;3.60;;;;;;;7.31;44.57;100032.94;7699851;32;40162;-77